Time;durP1;ratioP1;P1;durP2;ratioP2;P2;SDS_P1;SDS_P2;PMS_P1;PMS_P2;Temp;Humidity;BMP_temperature;BMP_pressure;BME280_temperature;BME280_humidity;BME280_pressure;Samples;Min_cycle;Max_cycle;Signal;HPM_P1;HPM_P2
2021/12/15 00:02:29;;;;;;;12.25;7.25;;;;;;;15.98;53.59;96737.34;10452883;28;20052;-77
2021/12/15 00:07:32;;;;;;;10.80;7.18;;;;;;;15.99;53.35;96748.56;10452923;28;20049;-77
2021/12/15 00:12:34;;;;;;;13.75;7.47;;;;;;;15.98;53.37;96752.16;10457469;28;20040;-77
2021/12/15 00:17:36;;;;;;;9.98;6.80;;;;;;;15.97;53.41;96748.72;10461483;28;20044;-76
2021/12/15 00:22:38;;;;;;;9.55;7.20;;;;;;;15.96;53.51;96752.31;10442680;28;20132;-77
2021/12/15 00:27:40;;;;;;;10.30;7.00;;;;;;;15.96;53.48;96757.53;10443185;28;20037;-77
2021/12/15 00:32:42;;;;;;;12.68;6.90;;;;;;;15.98;53.46;96757.38;10460512;28;20045;-77
2021/12/15 00:37:43;;;;;;;11.50;8.23;;;;;;;15.96;53.39;96754.94;10443063;28;20552;-77
2021/12/15 00:42:45;;;;;;;11.13;7.32;;;;;;;15.96;53.26;96747.91;10460074;28;20060;-77
2021/12/15 00:47:49;;;;;;;8.40;6.63;;;;;;;15.94;53.30;96752.50;10442286;28;20068;-77
2021/12/15 00:52:51;;;;;;;11.05;7.40;;;;;;;15.95;53.27;96755.91;10441821;28;20052;-77
2021/12/15 00:57:53;;;;;;;9.90;6.93;;;;;;;15.94;53.09;96764.72;10441580;28;20040;-77
2021/12/15 01:02:56;;;;;;;9.55;6.10;;;;;;;15.92;53.06;96769.28;10458673;28;20060;-77
2021/12/15 01:08:00;;;;;;;8.93;6.43;;;;;;;15.93;53.31;96782.13;10459489;28;20376;-77
2021/12/15 01:23:29;;;;;;;10.60;6.72;;;;;;;15.92;53.09;96782.28;10457549;28;20403;-77
2021/12/15 01:28:31;;;;;;;8.68;6.68;;;;;;;15.91;52.99;96778.88;10458839;28;20049;-77
2021/12/15 01:33:35;;;;;;;10.18;6.65;;;;;;;15.89;53.16;96786.06;10439831;28;20063;-76
2021/12/15 01:38:40;;;;;;;10.55;7.20;;;;;;;15.91;53.06;96785.91;10458452;28;20045;-77
2021/12/15 01:46:53;;;;;;;9.82;6.35;;;;;;;15.90;53.00;96794.69;10439678;28;20045;-77
2021/12/15 01:49:18;;;;;;;9.52;6.60;;;;;;;15.89;52.89;96799.09;10457745;28;20037;-76
2021/12/15 01:54:21;;;;;;;8.90;6.57;;;;;;;15.90;53.21;96797.28;10457246;28;20486;-77
2021/12/15 01:59:25;;;;;;;8.43;6.60;;;;;;;15.88;53.06;96794.84;10457556;28;20316;-76
2021/12/15 02:04:27;;;;;;;8.38;6.22;;;;;;;15.89;52.87;96790.44;10456800;28;20103;-77
2021/12/15 02:10:15;;;;;;;7.60;6.13;;;;;;;15.89;52.95;96793.03;10439250;28;20076;-77
2021/12/15 02:14:52;;;;;;;8.07;6.32;;;;;;;15.88;53.16;96787.03;10443072;28;20457;-77
2021/12/15 02:19:54;;;;;;;8.90;6.35;;;;;;;15.87;52.96;96780.19;10438338;28;20131;-77
2021/12/15 02:24:56;;;;;;;8.07;5.63;;;;;;;15.88;53.04;96781.03;10438286;28;20086;-77
2021/12/15 02:30:20;;;;;;;7.47;5.80;;;;;;;15.88;52.86;96783.63;10438275;28;20406;-77
2021/12/15 02:40:42;;;;;;;7.85;5.90;;;;;;;15.88;52.85;96768.00;10438196;28;20052;-77
2021/12/15 02:45:44;;;;;;;7.13;5.57;;;;;;;15.87;52.97;96769.78;10437760;28;20060;-77
2021/12/15 02:50:45;;;;;;;7.43;5.78;;;;;;;15.88;53.03;96768.00;10455709;28;20049;-77
2021/12/15 02:55:47;;;;;;;7.45;5.93;;;;;;;15.86;52.78;96773.41;10455331;28;20056;-77
2021/12/15 03:01:17;;;;;;;6.68;5.40;;;;;;;15.87;52.90;96776.78;10454774;28;20052;-77
2021/12/15 03:06:24;;;;;;;9.38;5.97;;;;;;;15.87;52.86;96771.59;10453636;28;20051;-77
2021/12/15 03:16:47;;;;;;;6.55;5.40;;;;;;;15.85;52.71;96776.16;10454638;28;20044;-77
2021/12/15 03:21:49;;;;;;;7.57;5.50;;;;;;;15.84;52.87;96777.13;10436837;28;20052;-77
2021/12/15 03:27:02;;;;;;;7.63;5.57;;;;;;;15.84;52.75;96766.72;10454383;28;20045;-77
2021/12/15 03:37:29;;;;;;;6.45;5.20;;;;;;;15.84;52.35;96771.94;10454240;28;20040;-77
2021/12/15 03:42:35;;;;;;;7.78;5.47;;;;;;;15.83;52.44;96773.72;10453688;28;20091;-77
2021/12/15 03:47:42;;;;;;;7.78;5.85;;;;;;;15.84;52.75;96779.75;10458503;28;20037;-77
2021/12/15 03:52:49;;;;;;;7.32;5.50;;;;;;;15.83;52.49;96788.53;10462563;28;20490;-77
2021/12/15 03:57:51;;;;;;;6.57;5.00;;;;;;;15.81;52.74;96782.69;10461980;28;20478;-77
2021/12/15 04:02:53;;;;;;;6.00;5.03;;;;;;;15.82;52.44;96787.72;10460881;28;20087;-77
2021/12/15 04:07:55;;;;;;;5.95;4.88;;;;;;;15.82;52.54;96792.94;10444133;28;20055;-77
2021/12/15 04:12:57;;;;;;;6.78;4.82;;;;;;;15.82;52.50;96798.13;10460964;28;20056;-77
2021/12/15 04:18:02;;;;;;;7.53;5.05;;;;;;;15.83;52.58;96804.16;10461373;28;20090;-77
2021/12/15 04:23:07;;;;;;;5.25;4.70;;;;;;;15.81;52.58;96804.31;10443393;28;20383;-77
2021/12/15 04:28:38;;;;;;;6.95;4.40;;;;;;;15.81;52.58;96798.31;10443193;28;20384;-77
2021/12/15 04:33:40;;;;;;;9.02;5.03;;;;;;;15.80;52.51;96802.72;10457563;28;20053;-76
2021/12/15 04:38:42;;;;;;;5.32;4.53;;;;;;;15.80;52.70;96807.91;10442994;28;20041;-77
2021/12/15 04:43:48;;;;;;;5.43;4.68;;;;;;;15.78;52.56;96813.28;10459824;28;20052;-77
2021/12/15 04:48:50;;;;;;;5.32;4.60;;;;;;;15.77;52.57;96803.84;10460323;28;20045;-77
2021/12/15 04:53:53;;;;;;;5.63;4.90;;;;;;;15.78;52.32;96807.28;10441766;28;20049;-77
2021/12/15 04:58:55;;;;;;;5.30;4.70;;;;;;;15.77;52.56;96806.47;10441198;28;20041;-77
2021/12/15 05:03:57;;;;;;;5.05;4.30;;;;;;;15.78;52.34;96809.88;10459187;28;20099;-77
2021/12/15 05:09:00;;;;;;;5.32;4.28;;;;;;;15.77;52.41;96816.88;10451920;28;20048;-77
2021/12/15 05:14:02;;;;;;;6.35;4.72;;;;;;;15.77;52.48;96818.66;10458731;28;20398;-77
2021/12/15 05:19:04;;;;;;;4.97;4.45;;;;;;;15.80;52.46;96833.16;10459017;28;20040;-77
2021/12/15 05:24:23;;;;;;;7.30;4.32;;;;;;;15.77;52.53;96834.28;10458847;28;20403;-76
2021/12/15 05:29:24;;;;;;;4.72;4.20;;;;;;;15.78;52.44;96833.31;10458188;28;20044;-76
2021/12/15 05:34:26;;;;;;;4.65;3.95;;;;;;;15.77;52.46;96837.69;10457782;28;20057;-77
2021/12/15 05:39:28;;;;;;;6.80;3.78;;;;;;;15.77;52.54;96842.91;10457828;28;20041;-76
2021/12/15 05:44:29;;;;;;;5.13;4.03;;;;;;;15.77;52.31;96849.91;10457859;28;20051;-77
2021/12/15 05:49:31;;;;;;;4.55;4.10;;;;;;;15.75;52.29;96854.44;10457538;28;20033;-76
2021/12/15 05:54:34;;;;;;;4.47;3.80;;;;;;;15.76;52.64;96858.66;10457423;28;20048;-76
2021/12/15 05:59:36;;;;;;;5.10;3.88;;;;;;;15.75;52.59;96855.25;10457163;28;20430;-76
2021/12/15 06:04:38;;;;;;;4.50;3.75;;;;;;;15.75;52.48;96863.06;10456838;28;20053;-77
2021/12/15 06:09:44;;;;;;;4.40;3.78;;;;;;;15.75;52.18;96868.28;10456773;28;20353;-76
2021/12/15 06:15:07;;;;;;;4.57;4.05;;;;;;;15.75;52.46;96873.47;10456263;28;20861;-77
2021/12/15 06:20:09;;;;;;;4.50;3.72;;;;;;;15.74;52.34;96882.25;10421505;28;20036;-77
2021/12/15 06:25:11;;;;;;;4.55;3.70;;;;;;;15.75;52.08;96885.69;10455876;28;20049;-79
2021/12/15 06:30:13;;;;;;;4.25;3.72;;;;;;;15.74;52.20;96895.28;10455972;28;20421;-76
2021/12/15 06:35:15;;;;;;;4.85;4.03;;;;;;;15.74;52.43;96902.28;10455464;28;20399;-77
2021/12/15 06:40:17;;;;;;;4.40;3.60;;;;;;;15.75;52.31;96903.91;10455534;28;20049;-76
2021/12/15 06:45:23;;;;;;;4.05;3.55;;;;;;;15.74;52.32;96904.88;10455270;28;20041;-77
2021/12/15 07:01:06;;;;;;;7.43;3.50;;;;;;;15.73;52.68;96919.69;10452658;28;20430;-77
2021/12/15 07:06:08;;;;;;;18.13;5.05;;;;;;;15.65;53.99;96926.72;10439606;28;20048;-83
2021/12/15 07:11:09;;;;;;;12.15;4.80;;;;;;;15.67;55.20;96935.16;10459695;28;20037;-83
2021/12/15 07:16:12;;;;;;;14.15;4.50;;;;;;;15.73;59.96;96935.31;10459486;28;20051;-76
2021/12/15 07:21:20;;;;;;;15.45;4.85;;;;;;;15.87;64.96;96930.41;10457538;28;20045;-76
2021/12/15 07:26:22;;;;;;;19.73;4.72;;;;;;;15.93;60.75;96927.94;10458171;28;20087;-75
2021/12/15 07:31:23;;;;;;;11.68;5.40;;;;;;;15.97;60.63;96936.22;10452983;28;20126;-73
2021/12/15 07:36:26;;;;;;;8.57;4.07;;;;;;;15.99;59.50;96946.47;10427151;28;20118;-74
2021/12/15 07:41:35;;;;;;;10.98;3.92;;;;;;;16.00;58.99;96937.69;10450577;28;20040;-74
2021/12/15 07:46:37;;;;;;;6.25;3.78;;;;;;;16.03;58.35;96950.34;10448739;28;20067;-74
2021/12/15 07:51:42;;;;;;;8.30;3.50;;;;;;;16.03;57.93;96948.56;10451824;28;20040;-74
2021/12/15 07:56:44;;;;;;;7.03;3.70;;;;;;;16.06;57.31;96963.84;10451294;28;20044;-75
2021/12/15 08:01:46;;;;;;;6.18;3.42;;;;;;;16.06;56.98;96969.06;10471883;28;20102;-73
2021/12/15 08:06:51;;;;;;;6.43;3.58;;;;;;;16.08;56.60;96981.91;10490941;28;20041;-75
2021/12/15 08:11:53;;;;;;;9.13;3.80;;;;;;;16.09;56.32;96983.53;10492606;28;20041;-74
2021/12/15 08:16:55;;;;;;;5.32;3.38;;;;;;;16.09;56.15;96986.94;10492699;28;20045;-75
2021/12/15 08:21:56;;;;;;;4.70;3.50;;;;;;;16.10;55.94;96985.97;10492525;28;20095;-75
2021/12/15 08:26:58;;;;;;;7.20;3.50;;;;;;;16.11;55.77;96984.19;10492882;28;20041;-75
2021/12/15 08:32:00;;;;;;;6.65;3.13;;;;;;;16.10;55.26;96988.59;10494860;28;20056;-75
2021/12/15 08:37:02;;;;;;;4.90;3.10;;;;;;;16.12;55.06;96991.03;10501379;28;20040;-75
2021/12/15 08:42:04;;;;;;;5.88;3.20;;;;;;;16.12;55.20;96991.03;10493739;28;20041;-74
2021/12/15 08:47:08;;;;;;;6.88;3.60;;;;;;;16.13;54.90;96992.66;10500340;28;20036;-73
2021/12/15 08:52:10;;;;;;;5.60;3.53;;;;;;;16.12;54.67;96983.22;10499837;28;20084;-73
2021/12/15 08:57:12;;;;;;;6.50;3.30;;;;;;;16.11;54.55;96985.00;10499719;28;20048;-75
2021/12/15 09:02:13;;;;;;;8.50;3.63;;;;;;;16.14;54.00;96987.25;10499887;28;20110;-73
2021/12/15 09:07:15;;;;;;;4.78;3.83;;;;;;;16.13;54.04;96988.25;10499477;28;20043;-74
2021/12/15 09:12:19;;;;;;;5.82;4.00;;;;;;;16.14;54.12;96991.66;10498245;28;20040;-76
2021/12/15 09:17:20;;;;;;;6.70;3.58;;;;;;;16.16;54.07;96996.69;10493552;28;20049;-71
2021/12/15 09:22:22;;;;;;;5.55;3.20;;;;;;;16.17;54.40;97004.34;10499275;28;20387;-70
2021/12/15 09:27:24;;;;;;;9.75;3.10;;;;;;;16.18;53.98;96995.56;10499472;28;20479;-70
2021/12/15 09:32:26;;;;;;;22.15;5.75;;;;;;;16.22;58.10;96983.81;10498945;28;20417;-72
2021/12/15 09:37:28;;;;;;;31.05;6.45;;;;;;;16.27;59.71;96993.72;10498789;28;20048;-72
2021/12/15 09:42:35;;;;;;;38.38;7.40;;;;;;;16.26;59.93;96985.09;10496547;28;20109;-72
2021/12/15 10:03:26;;;;;;;30.00;6.05;;;;;;;16.32;58.71;96989.63;10499235;28;20052;-84
2021/12/15 10:19:18;;;;;;;17.75;5.90;;;;;;;16.38;58.08;96979.50;10497922;28;20036;-71
2021/12/15 10:24:30;;;;;;;33.92;6.70;;;;;;;16.37;57.68;96968.28;10497028;28;20403;-72
2021/12/15 10:29:32;;;;;;;24.10;6.38;;;;;;;16.36;57.38;96965.84;10491562;28;20040;-72
2021/12/15 10:34:33;;;;;;;17.85;5.03;;;;;;;16.37;57.51;96965.66;10493782;28;20049;-72
2021/12/15 10:39:37;;;;;;;15.25;5.47;;;;;;;16.38;57.05;96953.44;10496490;28;20055;-72
2021/12/15 10:44:39;;;;;;;24.77;6.03;;;;;;;16.38;57.10;96961.25;10495974;28;20048;-72
2021/12/15 10:49:42;;;;;;;20.83;6.43;;;;;;;16.39;57.05;96960.28;10495822;28;20055;-72
2021/12/15 10:54:51;;;;;;;16.60;5.35;;;;;;;16.41;57.02;96953.91;10493423;28;20445;-72
2021/12/15 10:59:54;;;;;;;31.20;8.38;;;;;;;16.62;58.30;96955.09;10493498;28;20057;-73
2021/12/15 11:05:14;;;;;;;;;;;;;;;16.85;57.79;96955.94;10485720;28;20043;-77
2021/12/15 11:10:32;;;;;;;26.77;9.50;;;;;;;17.10;57.57;96950.53;10493107;28;19927;-73
2021/12/15 11:15:47;;;;;;;27.98;9.70;;;;;;;17.28;56.61;96952.00;10491766;28;20032;-73
2021/12/15 11:21:01;;;;;;;32.92;9.73;;;;;;;17.47;55.85;96930.59;10494345;28;20127;-74
2021/12/15 11:26:11;;;;;;;26.17;8.60;;;;;;;17.62;55.09;96935.03;10492255;28;20047;-73
2021/12/15 11:31:17;;;;;;;26.73;8.95;;;;;;;17.74;54.51;96933.59;10494578;28;20048;-73
2021/12/15 11:36:26;;;;;;;23.13;8.30;;;;;;;17.84;53.86;96933.31;10492810;28;20048;-74
2021/12/15 11:41:32;;;;;;;21.10;7.40;;;;;;;17.92;53.69;96923.59;10485015;28;20051;-71
2021/12/15 11:46:37;;;;;;;26.10;7.57;;;;;;;17.99;53.59;96923.69;10490844;28;20056;-85
2021/12/15 11:51:41;;;;;;;21.88;7.13;;;;;;;18.04;53.57;96921.34;10488843;28;20037;-72
2021/12/15 11:56:45;;;;;;;18.88;6.68;;;;;;;18.07;53.40;96928.81;10493922;28;20421;-72
2021/12/15 12:01:49;;;;;;;22.73;6.45;;;;;;;18.11;52.83;96924.81;10492600;28;20052;-73
2021/12/15 12:06:57;;;;;;;20.73;7.32;;;;;;;18.14;53.08;96915.81;10495820;28;20051;-72
2021/12/15 12:12:00;;;;;;;21.67;6.57;;;;;;;18.15;52.90;96917.44;10501146;28;20051;-72
2021/12/15 12:17:01;;;;;;;21.58;6.65;;;;;;;18.17;52.86;96904.19;10500320;28;20044;-74
2021/12/15 12:22:03;;;;;;;18.33;6.43;;;;;;;18.16;52.95;96898.16;10501788;28;20044;-73
2021/12/15 12:27:06;;;;;;;23.10;6.75;;;;;;;18.15;52.40;96893.94;10496717;28;20106;-74
2021/12/15 12:32:08;;;;;;;27.00;6.68;;;;;;;18.14;52.27;96892.31;10484077;28;20083;-73
2021/12/15 12:37:12;;;;;;;14.82;6.47;;;;;;;18.14;52.32;96889.69;10460796;28;20033;-72
2021/12/15 12:42:29;;;;;;;20.90;6.40;;;;;;;18.11;52.21;96877.78;10459065;28;20056;-74
2021/12/15 12:47:39;;;;;;;15.95;6.55;;;;;;;18.11;51.96;96877.78;10458952;28;20372;-73
2021/12/15 13:03:25;;;;;;;10.00;5.68;;;;;;;18.07;51.53;96873.13;10459445;28;20510;-73
2021/12/15 13:08:29;;;;;;;15.65;6.00;;;;;;;18.07;51.38;96875.72;10459327;28;20233;-75
2021/12/15 13:13:36;;;;;;;14.20;5.50;;;;;;;18.02;51.27;96863.22;10481232;28;20123;-74
2021/12/15 13:18:55;;;;;;;13.50;5.78;;;;;;;18.03;51.30;96870.06;10499494;28;20048;-75
2021/12/15 13:24:00;;;;;;;13.52;5.68;;;;;;;18.00;51.28;96870.44;10500501;28;20044;-73
2021/12/15 13:29:23;;;;;;;11.52;5.95;;;;;;;17.97;51.17;96870.00;10499997;28;20044;-75
2021/12/15 13:34:54;;;;;;;7.95;5.20;;;;;;;17.94;51.16;96871.16;10500274;28;20044;-74
2021/12/15 13:39:55;;;;;;;10.70;5.75;;;;;;;17.92;50.98;96866.13;10480705;28;20437;-75
2021/12/15 13:44:58;;;;;;;9.13;5.63;;;;;;;17.90;51.04;96859.47;10458145;28;20067;-75
2021/12/15 13:50:13;;;;;;;10.57;5.38;;;;;;;17.88;50.76;96859.66;10457892;28;20049;-74
2021/12/15 13:55:27;;;;;;;13.43;6.10;;;;;;;17.85;50.90;96862.63;10457468;28;20040;-74
2021/12/15 14:00:31;;;;;;;9.90;5.40;;;;;;;17.83;50.84;96866.38;10457262;28;20049;-75
2021/12/15 14:05:41;;;;;;;9.65;5.47;;;;;;;17.79;50.83;96863.34;10486055;28;20052;-74
2021/12/15 14:10:54;;;;;;;11.77;6.10;;;;;;;17.77;50.94;96868.75;10498312;28;20090;-74
2021/12/15 14:15:55;;;;;;;10.32;5.70;;;;;;;17.76;50.92;96874.16;10498156;28;20509;-73
2021/12/15 14:21:03;;;;;;;10.10;5.35;;;;;;;17.72;50.88;96880.72;10497774;28;20482;-74
2021/12/15 14:26:10;;;;;;;9.30;5.75;;;;;;;17.69;50.85;96866.25;10497841;28;20057;-75
2021/12/15 14:31:16;;;;;;;8.27;5.68;;;;;;;17.66;50.81;96860.59;10497183;28;20050;-74
2021/12/15 14:36:26;;;;;;;9.77;5.15;;;;;;;17.64;50.79;96855.53;10496517;28;20056;-74
2021/12/15 14:41:53;;;;;;;8.15;5.78;;;;;;;17.61;50.89;96862.91;10497046;28;20453;-74
2021/12/15 14:47:07;;;;;;;6.55;4.82;;;;;;;17.58;50.80;96862.28;10497360;28;20047;-74
2021/12/15 14:52:14;;;;;;;9.60;5.50;;;;;;;17.54;50.84;96868.03;10475463;28;20056;-74
2021/12/15 14:57:24;;;;;;;9.20;5.38;;;;;;;17.53;50.89;96866.41;10454040;28;20070;-74
2021/12/15 15:02:40;;;;;;;10.68;5.47;;;;;;;17.51;50.72;96873.63;10454999;28;20446;-73
2021/12/15 15:07:46;;;;;;;8.50;5.60;;;;;;;17.46;50.81;96871.56;10453567;28;20098;-74
2021/12/15 15:12:49;;;;;;;7.50;5.05;;;;;;;17.44;50.79;96870.94;10454826;28;20044;-74
2021/12/15 15:18:24;;;;;;;6.47;5.15;;;;;;;17.41;50.95;96869.47;10475579;28;20040;-73
2021/12/15 15:23:39;;;;;;;10.02;5.50;;;;;;;17.38;50.96;96871.66;10495932;28;20094;-74
2021/12/15 15:28:50;;;;;;;7.28;5.40;;;;;;;17.34;51.01;96879.03;10494610;28;20040;-74
2021/12/15 15:33:51;;;;;;;7.25;5.07;;;;;;;17.31;51.12;96891.63;10494821;28;20494;-74
2021/12/15 15:38:56;;;;;;;17.70;5.70;;;;;;;17.28;51.93;96895.41;10495307;28;20398;-78
2021/12/15 15:44:02;;;;;;;22.45;6.10;;;;;;;17.27;52.02;96904.22;10493965;28;20102;-79
2021/12/15 15:49:10;;;;;;;22.42;6.22;;;;;;;17.26;52.55;96909.59;10492341;28;20044;-81
2021/12/15 15:54:17;;;;;;;18.50;6.47;;;;;;;17.22;52.32;96915.19;10485301;28;20482;-77
2021/12/15 15:59:39;;;;;;;15.82;5.57;;;;;;;17.20;52.03;96916.38;10488856;28;20045;-81
2021/12/15 16:04:41;;;;;;;18.20;5.35;;;;;;;17.18;52.24;96920.94;10450540;28;20041;-80
2021/12/15 16:09:48;;;;;;;13.05;5.70;;;;;;;17.15;52.00;96931.75;10449931;28;20044;-81
2021/12/15 16:14:52;;;;;;;14.80;5.90;;;;;;;17.12;51.88;96932.09;10447178;28;20045;-78
2021/12/15 16:20:13;;;;;;;15.50;5.10;;;;;;;17.09;51.85;96938.47;10434117;28;20095;-78
2021/12/15 16:25:38;;;;;;;12.80;5.82;;;;;;;17.06;52.28;96940.63;10450513;28;20041;-80
2021/12/15 16:31:00;;;;;;;11.00;5.63;;;;;;;17.03;52.30;96941.78;10446789;28;20045;-82
2021/12/15 16:36:05;;;;;;;7.88;5.38;;;;;;;16.97;52.04;96939.88;10435608;28;20467;-81
2021/12/15 16:41:17;;;;;;;21.02;5.38;;;;;;;16.97;53.19;96947.69;10450671;28;20376;-78
2021/12/15 16:46:38;;;;;;;9.07;5.60;;;;;;;16.97;53.87;96942.47;10452431;28;20049;-78
2021/12/15 16:51:54;;;;;;;16.55;5.18;;;;;;;16.99;54.06;96950.94;10452534;28;20125;-79
2021/12/15 16:56:58;;;;;;;17.73;6.00;;;;;;;17.04;54.76;96946.03;10458160;28;20049;-79
2021/12/15 17:02:03;;;;;;;11.90;6.05;;;;;;;17.09;53.96;96968.97;10457878;28;20052;-80
2021/12/15 17:07:07;;;;;;;13.02;5.45;;;;;;;17.14;54.81;96957.00;10460016;28;20041;-81
2021/12/15 17:12:11;;;;;;;11.52;5.80;;;;;;;17.19;54.93;96959.88;10454114;28;20045;-80
2021/12/15 17:17:22;;;;;;;12.60;6.15;;;;;;;17.25;54.84;96950.56;10456869;28;20074;-78
2021/12/15 17:22:23;;;;;;;17.50;7.15;;;;;;;17.39;54.99;96960.22;10458135;28;20489;-78
2021/12/15 17:27:25;;;;;;;13.30;6.43;;;;;;;17.46;54.58;96957.69;10432859;28;20052;-79
2021/12/15 17:32:34;;;;;;;9.40;5.53;;;;;;;17.50;55.31;96948.53;10448222;28;20483;-80
2021/12/15 17:37:36;;;;;;;9.20;5.10;;;;;;;17.52;55.71;96964.81;10457805;28;20041;-76
2021/12/15 17:42:38;;;;;;;14.82;5.18;;;;;;;17.51;55.29;96959.78;10447076;28;20468;-81
2021/12/15 17:47:47;;;;;;;8.35;5.70;;;;;;;17.50;55.15;96961.56;10427729;28;20041;-76
2021/12/15 17:52:53;;;;;;;10.45;5.25;;;;;;;17.51;54.61;96967.59;10447518;28;20479;-77
2021/12/15 17:58:21;;;;;;;9.73;4.87;;;;;;;17.49;54.41;96973.00;10401318;28;20482;-77
2021/12/15 18:03:26;;;;;;;6.80;4.90;;;;;;;17.46;54.56;96965.53;10425180;28;20049;-77
2021/12/15 18:08:28;;;;;;;8.00;4.88;;;;;;;17.43;54.42;96967.69;10453741;28;20048;-77
2021/12/15 18:13:30;;;;;;;7.63;4.60;;;;;;;17.40;54.07;96968.84;10454348;28;20057;-75
2021/12/15 18:18:32;;;;;;;10.60;4.88;;;;;;;17.38;54.22;96965.59;10456422;28;20060;-77
2021/12/15 18:23:35;;;;;;;7.80;4.97;;;;;;;17.34;54.20;96974.75;10439748;28;20053;-76
2021/12/15 18:28:37;;;;;;;10.05;4.70;;;;;;;17.31;54.28;96980.38;10438211;28;20118;-80
2021/12/15 18:33:39;;;;;;;6.68;4.55;;;;;;;17.27;53.99;96977.28;10456529;28;20430;-80
2021/12/15 18:38:43;;;;;;;13.23;4.50;;;;;;;17.25;53.87;96978.47;10438164;28;20048;-79
2021/12/15 18:43:45;;;;;;;7.50;4.60;;;;;;;17.22;54.06;96979.59;10455928;28;20041;-79
2021/12/15 18:48:51;;;;;;;8.25;4.22;;;;;;;17.18;53.86;96973.94;10438680;28;20524;-78
2021/12/15 18:53:54;;;;;;;11.30;5.28;;;;;;;17.16;53.94;96962.84;10456661;28;20056;-78
2021/12/15 18:58:56;;;;;;;7.03;4.78;;;;;;;17.14;53.83;96971.84;10456681;28;20447;-77
2021/12/15 19:03:57;;;;;;;8.48;4.75;;;;;;;17.11;53.98;96969.59;10455731;28;20443;-77
2021/12/15 19:08:59;;;;;;;7.22;4.80;;;;;;;17.09;53.77;96972.38;10438026;28;20477;-76
2021/12/15 19:14:03;;;;;;;6.53;4.80;;;;;;;17.06;53.78;96979.75;10455733;28;20116;-81
2021/12/15 19:19:11;;;;;;;7.85;4.80;;;;;;;17.05;53.56;96994.56;10436512;28;20049;-81
2021/12/15 19:24:15;;;;;;;6.22;4.85;;;;;;;17.00;53.45;97013.34;10455317;28;20490;-78
2021/12/15 19:29:28;;;;;;;6.85;4.57;;;;;;;16.99;53.44;97016.97;10455684;28;20052;-80
2021/12/15 19:34:33;;;;;;;7.72;4.80;;;;;;;16.97;53.34;97024.16;10422681;28;20076;-81
2021/12/15 19:39:35;;;;;;;7.90;5.10;;;;;;;16.95;53.36;97020.09;10436721;28;20048;-81
2021/12/15 19:44:41;;;;;;;6.85;5.30;;;;;;;16.92;53.46;97021.25;10437664;28;20048;-81
2021/12/15 19:49:45;;;;;;;7.70;5.10;;;;;;;16.92;53.37;97036.09;10454625;28;20045;-79
2021/12/15 19:54:48;;;;;;;7.50;5.40;;;;;;;16.87;53.43;97028.78;10454669;28;20048;-80
2021/12/15 19:59:50;;;;;;;8.18;5.18;;;;;;;16.85;53.23;97028.13;10454424;28;20103;-79
2021/12/15 20:04:51;;;;;;;6.05;5.07;;;;;;;16.84;53.32;97027.28;10454793;28;20064;-79
2021/12/15 20:09:53;;;;;;;7.53;5.43;;;;;;;16.83;53.21;97030.06;10454161;28;20041;-78
2021/12/15 20:14:57;;;;;;;6.85;5.82;;;;;;;16.80;53.19;97017.41;10454188;28;20395;-77
2021/12/15 20:20:01;;;;;;;9.43;6.00;;;;;;;16.78;53.46;97035.81;10436515;28;20495;-80
2021/12/15 20:25:04;;;;;;;8.88;6.28;;;;;;;16.75;53.28;97033.56;10453809;28;20049;-76
2021/12/15 20:30:08;;;;;;;8.43;6.22;;;;;;;16.74;53.17;97037.13;10459273;28;20041;-77
2021/12/15 20:35:13;;;;;;;8.68;6.22;;;;;;;16.71;53.43;97034.88;10461948;28;20053;-77
2021/12/15 20:40:16;;;;;;;10.13;6.85;;;;;;;16.70;53.44;97059.31;10443634;28;20045;-81
2021/12/15 20:45:20;;;;;;;12.57;7.60;;;;;;;16.68;53.36;97059.47;10461477;28;20045;-78
2021/12/15 20:50:25;;;;;;;13.10;8.00;;;;;;;16.65;53.27;97064.22;10461353;28;20049;-79
2021/12/15 20:55:26;;;;;;;12.70;8.00;;;;;;;16.65;53.33;97062.44;10461299;28;20049;-79
2021/12/15 21:00:32;;;;;;;12.82;8.27;;;;;;;16.63;53.17;97066.19;10460852;28;20056;-80
2021/12/15 21:05:42;;;;;;;12.85;8.05;;;;;;;16.62;53.23;97075.84;10461047;28;20053;-80
2021/12/15 21:10:48;;;;;;;11.48;8.27;;;;;;;16.60;53.14;97069.16;10460320;28;20048;-80
2021/12/15 21:15:51;;;;;;;13.02;8.95;;;;;;;16.57;53.35;97062.47;10442692;28;20067;-79
2021/12/15 21:20:53;;;;;;;13.73;8.70;;;;;;;16.55;53.42;97059.22;10460250;28;20501;-78
2021/12/15 21:25:57;;;;;;;13.25;8.63;;;;;;;16.56;53.19;97055.66;10442200;28;20053;-81
2021/12/15 21:30:59;;;;;;;15.20;9.40;;;;;;;16.54;53.33;97064.63;10459826;28;20044;-77
2021/12/15 21:36:01;;;;;;;13.75;8.93;;;;;;;16.53;53.03;97060.38;10459667;28;20041;-79
2021/12/15 21:41:05;;;;;;;12.77;8.68;;;;;;;16.52;53.35;97063.97;10458406;28;20118;-79
2021/12/15 21:46:07;;;;;;;13.40;9.05;;;;;;;16.49;53.09;97065.91;10459009;28;20041;-75
2021/12/15 21:51:17;;;;;;;14.23;9.45;;;;;;;16.48;53.30;97058.28;10459177;28;20049;-76
2021/12/15 21:56:19;;;;;;;13.27;9.25;;;;;;;16.48;53.42;97063.47;10441268;28;20056;-79
2021/12/15 22:01:22;;;;;;;12.50;8.75;;;;;;;16.45;53.30;97069.06;10458401;28;20115;-77
2021/12/15 22:06:24;;;;;;;13.38;9.18;;;;;;;16.44;53.22;97081.25;10458520;28;20094;-79
2021/12/15 22:11:26;;;;;;;12.18;8.38;;;;;;;16.42;53.14;97082.44;10458205;28;20037;-80
2021/12/15 22:16:28;;;;;;;13.23;9.02;;;;;;;16.41;53.21;97089.41;10457263;28;20083;-77
2021/12/15 22:21:34;;;;;;;13.60;9.50;;;;;;;16.40;53.58;97093.03;10457325;28;20045;-79
2021/12/15 22:26:41;;;;;;;14.93;10.32;;;;;;;16.39;53.34;97088.78;10445505;28;20037;-80
2021/12/15 22:31:44;;;;;;;13.95;8.68;;;;;;;16.37;53.25;97097.72;10451035;28;20391;-76
2021/12/15 22:36:46;;;;;;;13.82;9.05;;;;;;;16.37;53.01;97092.53;10455920;28;20048;-80
2021/12/15 22:41:50;;;;;;;12.05;8.95;;;;;;;16.34;53.29;97101.50;10455444;28;20076;-75
2021/12/15 22:46:52;;;;;;;12.88;9.35;;;;;;;16.33;53.51;97098.06;10451698;28;20479;-79
2021/12/15 22:51:55;;;;;;;13.40;9.00;;;;;;;16.33;53.29;97097.25;10456163;28;20045;-79
2021/12/15 22:56:56;;;;;;;13.63;8.63;;;;;;;16.32;53.47;97103.44;10455665;28;20044;-80
2021/12/15 23:02:02;;;;;;;13.07;8.73;;;;;;;16.31;53.39;97114.88;10454926;28;20045;-78
2021/12/15 23:07:09;;;;;;;13.18;8.45;;;;;;;16.30;53.35;97114.06;10455579;28;20475;-80
2021/12/15 23:12:13;;;;;;;14.20;8.35;;;;;;;16.30;53.30;97108.84;10455252;28;20044;-75
2021/12/15 23:17:22;;;;;;;13.75;8.70;;;;;;;16.29;53.24;97093.38;10454956;28;20099;-77
2021/12/15 23:22:25;;;;;;;14.10;8.90;;;;;;;16.28;53.40;97089.16;10454986;28;20048;-77
2021/12/15 23:27:26;;;;;;;14.23;7.97;;;;;;;16.27;53.27;97084.91;10454483;28;20079;-78
2021/12/15 23:32:30;;;;;;;10.88;8.15;;;;;;;16.25;53.44;97098.09;10436775;28;20056;-80
2021/12/15 23:37:32;;;;;;;10.55;7.97;;;;;;;16.26;53.44;97088.50;10453727;28;20056;-80
